Terminal Aerodrome Forecast
Issued by NWS

Current Version | Previous Version | Text Only | Print | Product List | Glossary On
Versions: 1 2 3 4 5 6 7 8 9 10 11 12 13 14 15 16 17
556
FTUS45 KTFX 281125
TAFHLN
TAF
KHLN 281125Z 2812/2912 25007KT P6SM SCT120
     FM281800 28011KT P6SM SCT070 BKN150=

USA.gov is the U.S. government's official web portal to all federal, state and local government web resources and services.